createdAt,value
2018-05-17T00:00:35.058Z,16.30
2018-05-17T00:01:35.077Z,16.60
2018-05-17T00:02:35.095Z,19.10
2018-05-17T00:03:35.114Z,21.60
2018-05-17T00:04:35.137Z,19.90
2018-05-17T00:05:35.153Z,19.30
2018-05-17T00:06:35.174Z,17.70
2018-05-17T00:07:35.190Z,14.60
2018-05-17T00:08:35.211Z,18.50
2018-05-17T00:09:35.229Z,15.10
2018-05-17T00:10:35.247Z,19.10
2018-05-17T00:11:35.268Z,14.30
2018-05-17T00:12:35.285Z,17.90
2018-05-17T00:13:35.305Z,16.20
2018-05-17T00:14:35.331Z,17.30
2018-05-17T00:15:35.343Z,16.90
2018-05-17T00:16:35.367Z,13.00
2018-05-17T00:17:35.383Z,23.20
2018-05-17T00:18:35.401Z,16.80
2018-05-17T00:19:35.418Z,19.90
2018-05-17T00:20:35.439Z,16.10
2018-05-17T00:21:35.457Z,17.20
2018-05-17T00:22:35.475Z,20.80
2018-05-17T00:23:35.493Z,13.40
2018-05-17T00:24:35.515Z,16.50
2018-05-17T00:25:35.533Z,19.80
2018-05-17T00:26:35.549Z,15.20
2018-05-17T00:27:35.572Z,19.80
2018-05-17T00:28:35.588Z,16.40
2018-05-17T00:29:35.608Z,18.30
2018-05-17T00:30:35.626Z,17.70
2018-05-17T00:31:35.645Z,21.00
2018-05-17T00:32:35.665Z,20.40
2018-05-17T00:33:35.682Z,17.00
2018-05-17T00:34:35.705Z,17.70
2018-05-17T00:35:35.721Z,17.20
2018-05-17T00:36:35.790Z,19.50
2018-05-17T00:37:35.757Z,18.00
2018-05-17T00:38:35.780Z,20.90
2018-05-17T00:39:35.799Z,18.00
2018-05-17T00:40:35.819Z,22.70
2018-05-17T00:41:35.838Z,15.60
2018-05-17T00:42:35.853Z,15.90
2018-05-17T00:43:35.870Z,19.60
2018-05-17T00:44:35.890Z,15.10
2018-05-17T00:45:35.909Z,18.20
2018-05-17T00:46:35.928Z,15.40
2018-05-17T00:47:35.950Z,18.10
2018-05-17T00:48:35.971Z,14.80
2018-05-17T00:49:35.983Z,19.30
2018-05-17T00:50:36.004Z,16.90
2018-05-17T00:51:36.022Z,13.20
2018-05-17T00:52:36.044Z,16.20
2018-05-17T00:53:36.059Z,20.20
2018-05-17T00:54:36.077Z,17.10
2018-05-17T00:55:36.097Z,21.60
2018-05-17T00:56:36.116Z,12.70
2018-05-17T00:57:36.135Z,20.00
2018-05-17T00:58:36.152Z,19.70
2018-05-17T00:59:36.171Z,17.50
2018-05-17T01:00:36.190Z,15.80
2018-05-17T01:01:36.209Z,18.00
2018-05-17T01:02:36.228Z,20.50
2018-05-17T01:03:36.247Z,16.90
2018-05-17T01:04:36.267Z,16.80
2018-05-17T01:05:36.285Z,16.10
2018-05-17T01:06:36.302Z,18.90
2018-05-17T01:07:36.323Z,18.60
2018-05-17T01:08:36.341Z,17.50
2018-05-17T01:09:36.359Z,16.80
2018-05-17T01:10:36.383Z,13.80
2018-05-17T01:11:36.397Z,16.80
2018-05-17T01:12:36.417Z,16.00
2018-05-17T01:13:36.440Z,20.30
2018-05-17T01:14:36.454Z,18.00
2018-05-17T01:15:36.474Z,19.20
2018-05-17T01:16:36.490Z,19.60
2018-05-17T01:17:36.509Z,20.10
2018-05-17T01:18:36.527Z,17.20
2018-05-17T01:19:36.546Z,20.10
2018-05-17T01:20:36.566Z,16.40
2018-05-17T01:21:36.589Z,20.60
2018-05-17T01:22:36.602Z,15.30
2018-05-17T01:23:36.626Z,23.20
2018-05-17T01:24:36.640Z,19.20
2018-05-17T01:25:36.659Z,21.90
2018-05-17T01:26:36.677Z,19.20
2018-05-17T01:27:36.699Z,20.50
2018-05-17T01:28:36.716Z,17.10
2018-05-17T01:29:36.734Z,19.30
2018-05-17T01:30:36.753Z,19.30
2018-05-17T01:31:36.776Z,18.90
2018-05-17T01:32:36.790Z,19.30
2018-05-17T01:33:36.809Z,17.40
2018-05-17T01:34:36.827Z,21.00
2018-05-17T01:35:36.846Z,22.80
2018-05-17T01:36:36.865Z,20.80
2018-05-17T01:37:36.885Z,22.20
2018-05-17T01:38:36.902Z,20.70
2018-05-17T01:39:36.922Z,18.80
2018-05-17T01:40:36.941Z,18.20
2018-05-17T01:41:36.959Z,20.50
2018-05-17T01:42:36.978Z,17.80
2018-05-17T01:43:36.999Z,20.00
2018-05-17T01:44:37.016Z,19.20
2018-05-17T01:45:37.036Z,23.10
2018-05-17T01:46:37.057Z,19.60
2018-05-17T01:47:37.071Z,17.30
2018-05-17T01:48:37.091Z,22.90
2018-05-17T01:49:37.113Z,18.10
2018-05-17T01:50:37.128Z,25.30
2018-05-17T01:51:37.147Z,18.20
2018-05-17T01:52:37.165Z,19.90
2018-05-17T01:53:37.184Z,16.80
2018-05-17T01:54:37.204Z,23.80
2018-05-17T01:55:37.223Z,22.30
2018-05-17T01:56:37.242Z,17.50
2018-05-17T01:57:37.261Z,20.80
2018-05-17T01:58:37.279Z,20.70
2018-05-17T01:59:37.297Z,22.70
2018-05-17T02:00:37.316Z,22.00
2018-05-17T02:01:37.335Z,19.10
2018-05-17T02:02:37.356Z,18.20
2018-05-17T02:03:37.373Z,21.00
2018-05-17T02:04:37.391Z,17.30
2018-05-17T02:05:37.410Z,21.70
2018-05-17T02:06:37.429Z,23.40
2018-05-17T02:07:37.446Z,19.30
2018-05-17T02:08:37.467Z,16.80
2018-05-17T02:09:37.486Z,22.80
2018-05-17T02:10:37.502Z,17.20
2018-05-17T02:11:37.522Z,23.80
2018-05-17T02:12:37.541Z,16.60
2018-05-17T02:13:37.561Z,21.90
2018-05-17T02:14:37.577Z,18.20
2018-05-17T02:15:37.598Z,19.50
2018-05-17T02:16:37.616Z,19.20
2018-05-17T02:17:37.638Z,25.10
2018-05-17T02:18:37.654Z,21.20
2018-05-17T02:19:37.671Z,25.30
2018-05-17T02:20:37.692Z,20.80
2018-05-17T02:21:37.710Z,18.20
2018-05-17T02:22:37.727Z,22.20
2018-05-17T02:23:37.747Z,20.30
2018-05-17T02:24:37.767Z,19.50
2018-05-17T02:25:37.785Z,22.50
2018-05-17T02:26:37.802Z,25.50
2018-05-17T02:27:37.822Z,23.30
2018-05-17T02:28:37.841Z,22.50
2018-05-17T02:29:37.860Z,20.40
2018-05-17T02:30:37.878Z,20.70
2018-05-17T02:31:37.898Z,17.90
2018-05-17T02:32:37.918Z,19.10
2018-05-17T02:33:37.935Z,22.60
2018-05-17T02:34:37.955Z,20.70
2018-05-17T02:35:37.971Z,18.00
2018-05-17T02:36:37.990Z,22.10
2018-05-17T02:37:38.010Z,23.90
2018-05-17T02:38:38.028Z,18.40
2018-05-17T02:39:38.049Z,18.70
2018-05-17T02:40:38.066Z,22.10
2018-05-17T02:41:38.085Z,17.80
2018-05-17T02:42:38.102Z,19.80
2018-05-17T02:43:38.122Z,23.30
2018-05-17T02:44:38.141Z,22.70
2018-05-17T02:45:38.158Z,19.80
2018-05-17T02:46:38.182Z,18.80
2018-05-17T02:47:38.195Z,17.80
2018-05-17T02:48:38.218Z,22.30
2018-05-17T02:49:38.233Z,22.00
2018-05-17T02:50:38.252Z,23.70
2018-05-17T02:51:38.270Z,21.10
2018-05-17T02:52:38.290Z,18.90
2018-05-17T02:53:38.307Z,24.90
2018-05-17T02:54:38.327Z,20.00
2018-05-17T02:55:38.350Z,22.80
2018-05-17T02:56:38.364Z,22.30
2018-05-17T02:57:38.391Z,18.10
2018-05-17T02:58:38.399Z,22.10
2018-05-17T02:59:38.420Z,19.30
2018-05-17T03:00:38.438Z,21.20
2018-05-17T03:01:38.457Z,19.60
2018-05-17T03:02:38.475Z,19.10
2018-05-17T03:03:38.493Z,19.00
2018-05-17T03:04:38.512Z,21.80
2018-05-17T03:05:38.536Z,26.60
2018-05-17T03:06:38.550Z,18.90
2018-05-17T03:07:38.568Z,19.70
2018-05-17T03:08:38.588Z,21.20
2018-05-17T03:09:38.605Z,20.20
2018-05-17T03:10:38.622Z,18.30
2018-05-17T03:11:38.642Z,16.30
2018-05-17T03:12:38.661Z,20.10
2018-05-17T03:13:38.681Z,21.90
2018-05-17T03:14:38.697Z,22.20
2018-05-17T03:15:38.717Z,21.80
2018-05-17T03:16:38.745Z,24.00
2018-05-17T03:17:38.754Z,17.30
2018-05-17T03:18:38.770Z,19.90
2018-05-17T03:19:38.790Z,21.50
2018-05-17T03:20:38.808Z,20.30
2018-05-17T03:21:38.828Z,20.60
2018-05-17T03:22:38.845Z,19.30
2018-05-17T03:23:38.864Z,19.50
2018-05-17T03:24:38.886Z,16.80
2018-05-17T03:25:38.901Z,17.50
2018-05-17T03:26:38.920Z,20.90
2018-05-17T03:27:38.938Z,16.90
2018-05-17T03:28:38.957Z,22.40
2018-05-17T03:29:38.975Z,27.30
2018-05-17T03:30:38.995Z,20.40
2018-05-17T03:31:39.013Z,20.00
2018-05-17T03:32:39.030Z,16.60
2018-05-17T03:33:39.048Z,20.60
2018-05-17T03:34:39.066Z,19.00
2018-05-17T03:35:39.086Z,18.90
2018-05-17T03:36:39.104Z,17.90
2018-05-17T03:37:39.124Z,19.20
2018-05-17T03:38:39.145Z,21.40
2018-05-17T03:39:39.158Z,20.70
2018-05-17T03:40:39.177Z,18.80
2018-05-17T03:41:39.196Z,21.50
2018-05-17T03:42:39.295Z,18.80
2018-05-17T03:43:39.233Z,20.10
2018-05-17T03:44:39.257Z,20.90
2018-05-17T03:45:39.270Z,19.30
2018-05-17T03:46:39.288Z,23.60
2018-05-17T03:47:39.385Z,20.60
2018-05-17T03:48:39.326Z,19.20
2018-05-17T03:49:39.345Z,19.50
2018-05-17T03:50:39.361Z,16.80
2018-05-17T03:51:39.382Z,22.70
2018-05-17T03:52:39.399Z,16.80
2018-05-17T03:53:39.418Z,20.90
2018-05-17T03:54:39.435Z,13.90
2018-05-17T03:55:39.454Z,22.40
2018-05-17T03:56:39.474Z,19.30
2018-05-17T03:57:39.491Z,19.70
2018-05-17T03:58:39.509Z,23.40
2018-05-17T03:59:39.528Z,20.70
2018-05-17T04:00:39.547Z,23.30
2018-05-17T04:01:39.566Z,22.30
2018-05-17T04:02:39.582Z,19.70
2018-05-17T04:03:39.601Z,18.70
2018-05-17T04:04:39.622Z,19.30
2018-05-17T04:05:39.638Z,24.20
2018-05-17T04:06:39.658Z,20.10
2018-05-17T04:07:39.676Z,21.30
2018-05-17T04:08:39.781Z,21.20
2018-05-17T04:09:39.714Z,18.90
2018-05-17T04:10:39.731Z,19.80
2018-05-17T04:11:39.753Z,19.00
2018-05-17T04:12:39.769Z,20.30
2018-05-17T04:13:39.787Z,22.30
2018-05-17T04:14:39.807Z,22.00
2018-05-17T04:15:39.824Z,18.40
2018-05-17T04:16:39.842Z,19.50
2018-05-17T04:17:39.861Z,21.10
2018-05-17T04:18:39.878Z,17.80
2018-05-17T04:19:39.897Z,25.50
2018-05-17T04:20:39.915Z,19.70
2018-05-17T04:21:39.934Z,22.30
2018-05-17T04:22:39.953Z,25.70
2018-05-17T04:23:39.971Z,17.80
2018-05-17T04:24:39.991Z,21.60
2018-05-17T04:25:40.010Z,20.70
2018-05-17T04:26:40.027Z,19.80
2018-05-17T04:27:40.046Z,23.50
2018-05-17T04:28:40.064Z,18.70
2018-05-17T04:29:40.082Z,16.80
2018-05-17T04:30:40.101Z,20.20
2018-05-17T04:31:40.119Z,26.00
2018-05-17T04:32:40.139Z,23.70
2018-05-17T04:33:40.156Z,20.80
2018-05-17T04:34:40.179Z,20.40
2018-05-17T04:35:40.194Z,15.90
2018-05-17T04:36:40.212Z,21.50
2018-05-17T04:37:40.232Z,21.90
2018-05-17T04:38:40.251Z,22.40
2018-05-17T04:39:40.267Z,18.10
2018-05-17T04:40:40.286Z,23.20
2018-05-17T04:41:40.306Z,19.50
2018-05-17T04:42:40.322Z,19.20
2018-05-17T04:43:40.341Z,25.40
2018-05-17T04:44:40.365Z,20.10
2018-05-17T04:45:40.379Z,21.00
2018-05-17T04:46:40.398Z,22.30
2018-05-17T04:47:40.416Z,22.40
2018-05-17T04:48:40.435Z,20.10
2018-05-17T04:49:40.454Z,20.50
2018-05-17T04:50:40.475Z,21.90
2018-05-17T04:51:40.491Z,22.60
2018-05-17T04:52:40.509Z,22.20
2018-05-17T04:53:40.528Z,20.40
2018-05-17T04:54:40.565Z,22.00
2018-05-17T04:55:40.566Z,20.70
2018-05-17T04:56:40.585Z,25.20
2018-05-17T04:57:40.603Z,20.60
2018-05-17T04:58:40.620Z,23.40
2018-05-17T04:59:40.640Z,23.70
2018-05-17T05:00:40.662Z,19.30
2018-05-17T05:01:40.682Z,19.10
2018-05-17T05:02:40.776Z,21.60
2018-05-17T05:03:40.715Z,23.30
2018-05-17T05:04:40.736Z,21.80
2018-05-17T05:05:40.752Z,25.50
2018-05-17T05:06:40.771Z,19.40
2018-05-17T05:07:40.790Z,19.40
2018-05-17T05:08:40.809Z,21.60
2018-05-17T05:09:40.827Z,23.50
2018-05-17T05:10:40.846Z,18.00
2018-05-17T05:11:40.867Z,25.80
2018-05-17T05:12:40.884Z,18.40
2018-05-17T05:13:40.906Z,19.30
2018-05-17T05:14:40.921Z,24.10
2018-05-17T05:15:40.943Z,19.80
2018-05-17T05:16:40.959Z,25.70
2018-05-17T05:17:40.978Z,22.00
2018-05-17T05:18:40.996Z,27.40
2018-05-17T05:19:41.045Z,23.30
2018-05-17T05:20:41.036Z,21.00
2018-05-17T05:21:41.052Z,20.50
2018-05-17T05:22:41.075Z,19.80
2018-05-17T05:23:41.099Z,20.20
2018-05-17T05:24:41.110Z,20.60
2018-05-17T05:25:41.128Z,24.90
2018-05-17T05:26:41.147Z,23.60
2018-05-17T05:27:41.166Z,20.50
2018-05-17T05:28:41.185Z,22.20
2018-05-17T05:29:41.204Z,20.70
2018-05-17T05:30:41.323Z,22.80
2018-05-17T05:31:41.254Z,21.60
2018-05-17T05:32:41.260Z,24.10
2018-05-17T05:33:41.278Z,17.30
2018-05-17T05:34:41.298Z,26.40
2018-05-17T05:35:41.316Z,20.20
2018-05-17T05:36:41.336Z,20.90
2018-05-17T05:37:41.388Z,20.70
2018-05-17T05:38:41.375Z,21.60
2018-05-17T05:39:41.392Z,21.50
2018-05-17T05:40:41.412Z,25.40
2018-05-17T05:41:41.430Z,19.50
2018-05-17T05:42:41.448Z,27.10
2018-05-17T05:43:41.471Z,18.80
2018-05-17T05:44:41.486Z,24.50
2018-05-17T05:45:41.506Z,16.80
2018-05-17T05:46:41.524Z,22.30
2018-05-17T05:47:41.544Z,21.20
2018-05-17T05:48:41.563Z,21.40
2018-05-17T05:49:41.582Z,21.50
2018-05-17T05:50:41.602Z,23.70
2018-05-17T05:51:41.620Z,26.40
2018-05-17T05:52:41.641Z,21.50
2018-05-17T05:53:41.657Z,24.60
2018-05-17T05:54:41.676Z,23.30
2018-05-17T05:55:41.695Z,20.70
2018-05-17T05:56:41.715Z,28.20
2018-05-17T05:57:41.733Z,24.20
2018-05-17T05:58:41.753Z,22.60
2018-05-17T05:59:41.774Z,22.10
2018-05-17T06:00:41.792Z,20.20
2018-05-17T06:01:41.856Z,25.80
2018-05-17T06:02:41.829Z,22.80
2018-05-17T06:03:41.848Z,19.20
2018-05-17T06:04:41.869Z,20.60
2018-05-17T06:05:41.888Z,26.60
2018-05-17T06:06:41.907Z,23.10
2018-05-17T06:07:41.928Z,23.30
2018-05-17T06:08:41.956Z,22.80
2018-05-17T06:09:41.964Z,21.20
2018-05-17T06:10:41.985Z,22.30
2018-05-17T06:11:42.002Z,22.90
2018-05-17T06:12:42.022Z,18.40
2018-05-17T06:13:42.046Z,19.80
2018-05-17T06:14:42.061Z,18.10
2018-05-17T06:15:42.081Z,22.80
2018-05-17T06:16:42.100Z,21.50
2018-05-17T06:17:42.120Z,19.70
2018-05-17T06:18:42.138Z,20.00
2018-05-17T06:19:42.158Z,21.40
2018-05-17T06:20:42.178Z,21.40
2018-05-17T06:21:42.197Z,21.10
2018-05-17T06:22:42.215Z,27.50
2018-05-17T06:23:42.271Z,17.00
2018-05-17T06:24:42.255Z,16.40
2018-05-17T06:25:42.275Z,20.70
2018-05-17T06:26:42.293Z,21.60
2018-05-17T06:27:42.313Z,23.80
2018-05-17T06:28:42.332Z,18.00
2018-05-17T06:29:42.352Z,18.60
2018-05-17T06:30:42.370Z,20.90
2018-05-17T06:31:42.389Z,20.90
2018-05-17T06:32:42.409Z,21.60
2018-05-17T06:33:42.428Z,19.90
2018-05-17T06:34:42.446Z,24.10
2018-05-17T06:35:42.466Z,21.50
2018-05-17T06:36:42.487Z,20.30
2018-05-17T06:37:42.523Z,24.30
2018-05-17T06:38:42.524Z,19.00
2018-05-17T06:39:42.546Z,18.70
2018-05-17T06:40:42.563Z,20.20
2018-05-17T06:41:42.583Z,27.70
2018-05-17T06:42:42.603Z,20.60
2018-05-17T06:43:42.621Z,22.30
2018-05-17T06:44:42.642Z,18.10
2018-05-17T06:45:42.662Z,19.90
2018-05-17T06:46:42.680Z,21.30
2018-05-17T06:47:42.698Z,18.20
2018-05-17T06:48:42.720Z,19.80
2018-05-17T06:49:42.739Z,19.60
2018-05-17T06:50:42.759Z,18.90
2018-05-17T06:51:42.776Z,22.70
2018-05-17T06:52:42.796Z,21.20
2018-05-17T06:53:42.815Z,19.50
2018-05-17T06:54:42.835Z,18.70
2018-05-17T06:55:42.857Z,23.90
2018-05-17T06:56:42.875Z,19.50
2018-05-17T06:57:42.893Z,32.40
2018-05-17T06:58:42.916Z,18.80
2018-05-17T06:59:42.933Z,25.40
2018-05-17T07:00:43.038Z,17.30
2018-05-17T07:01:42.971Z,17.80
2018-05-17T07:02:42.991Z,17.80
2018-05-17T07:03:43.055Z,21.80
2018-05-17T07:04:43.038Z,17.60
2018-05-17T07:05:43.051Z,16.30
2018-05-17T07:06:43.069Z,20.60
2018-05-17T07:07:43.088Z,21.20
2018-05-17T07:08:43.107Z,20.40
2018-05-17T07:09:43.129Z,18.90
2018-05-17T07:10:43.148Z,17.10
2018-05-17T07:11:43.166Z,19.40
2018-05-17T07:12:43.187Z,18.40
2018-05-17T07:13:43.206Z,18.00
2018-05-17T07:14:43.225Z,18.40
2018-05-17T07:15:43.246Z,20.00
2018-05-17T07:16:43.266Z,20.40
2018-05-17T07:17:43.285Z,17.50
2018-05-17T07:18:43.600Z,16.00
2018-05-17T07:19:43.326Z,19.60
2018-05-17T07:20:43.344Z,18.10
2018-05-17T07:21:43.365Z,20.20
2018-05-17T07:22:43.383Z,14.70
2018-05-17T07:23:43.403Z,13.80
2018-05-17T07:24:43.426Z,20.90
2018-05-17T07:25:43.443Z,13.90
2018-05-17T07:26:43.464Z,23.50
2018-05-17T07:27:43.483Z,18.50
2018-05-17T07:28:43.503Z,20.70
2018-05-17T07:29:43.525Z,17.00
2018-05-17T07:30:43.546Z,18.30
2018-05-17T07:31:43.562Z,19.30
2018-05-17T07:32:43.582Z,18.80
2018-05-17T07:33:43.604Z,21.50
2018-05-17T07:34:43.622Z,22.00
2018-05-17T07:35:43.641Z,17.60
2018-05-17T07:36:43.763Z,18.50
2018-05-17T07:37:43.683Z,16.70
2018-05-17T07:38:43.702Z,21.10
2018-05-17T07:39:43.722Z,17.10
2018-05-17T07:40:43.741Z,18.30
2018-05-17T07:41:43.762Z,20.80
2018-05-17T07:42:43.783Z,17.00
2018-05-17T07:43:43.801Z,16.50
2018-05-17T07:44:43.822Z,17.50
2018-05-17T07:45:43.842Z,15.40
2018-05-17T07:46:43.946Z,18.30
2018-05-17T07:47:43.880Z,17.10
2018-05-17T07:48:43.901Z,19.20
2018-05-17T07:49:43.922Z,17.40
2018-05-17T07:50:43.941Z,18.30
2018-05-17T07:51:43.963Z,18.50
2018-05-17T07:52:43.985Z,17.50
2018-05-17T07:53:44.003Z,19.30
2018-05-17T07:54:44.025Z,17.10
2018-05-17T07:55:44.044Z,19.10
2018-05-17T07:56:44.066Z,21.20
2018-05-17T07:57:44.085Z,16.00
2018-05-17T07:58:44.106Z,17.90
2018-05-17T07:59:44.128Z,17.20
2018-05-17T08:00:44.149Z,16.60
2018-05-17T08:01:44.252Z,17.60
2018-05-17T08:02:44.190Z,17.20
2018-05-17T08:03:44.213Z,15.70
2018-05-17T08:04:44.235Z,14.80
2018-05-17T08:05:44.254Z,17.50
2018-05-17T08:06:44.276Z,20.20
2018-05-17T08:07:44.296Z,15.50
2018-05-17T08:08:44.319Z,16.70
2018-05-17T08:09:44.346Z,14.90
2018-05-17T08:10:44.361Z,18.20
2018-05-17T08:11:44.382Z,16.20
2018-05-17T08:12:44.404Z,14.60
2018-05-17T08:13:44.429Z,15.40
2018-05-17T08:14:44.445Z,17.40
2018-05-17T08:15:44.470Z,15.70
2018-05-17T08:16:44.492Z,19.60
2018-05-17T08:17:44.510Z,16.10
2018-05-17T08:18:44.529Z,21.30
2018-05-17T08:19:44.549Z,18.20
2018-05-17T08:20:44.572Z,15.10
2018-05-17T08:21:44.595Z,17.10
2018-05-17T08:22:44.613Z,19.90
2018-05-17T08:23:44.634Z,14.10
2018-05-17T08:24:44.654Z,14.50
2018-05-17T08:25:44.676Z,17.60
2018-05-17T08:26:44.700Z,15.30
2018-05-17T08:27:44.719Z,15.70
2018-05-17T08:28:44.740Z,18.10
2018-05-17T08:29:44.762Z,14.70
2018-05-17T08:30:44.783Z,15.10
2018-05-17T08:31:44.805Z,14.10
2018-05-17T08:32:44.825Z,16.80
2018-05-17T08:33:44.849Z,18.10
2018-05-17T08:34:44.870Z,16.20
2018-05-17T08:35:44.891Z,17.10
2018-05-17T08:36:45.002Z,18.40
2018-05-17T08:37:44.939Z,18.40
2018-05-17T08:38:44.957Z,19.30
2018-05-17T08:39:44.978Z,16.00
2018-05-17T08:40:44.999Z,13.00
2018-05-17T08:41:45.026Z,14.50
2018-05-17T08:42:45.135Z,15.80
2018-05-17T08:43:45.066Z,15.30
2018-05-17T08:44:45.089Z,12.60
2018-05-17T08:45:45.141Z,16.90
2018-05-17T08:46:45.134Z,16.00
2018-05-17T08:47:45.158Z,14.40
2018-05-17T08:48:45.181Z,17.80
2018-05-17T08:49:45.204Z,12.50
2018-05-17T08:50:45.226Z,14.70
2018-05-17T08:51:45.252Z,14.80
2018-05-17T08:52:45.273Z,15.50
2018-05-17T08:53:45.298Z,14.00
2018-05-17T08:54:45.321Z,16.80
2018-05-17T08:55:45.344Z,16.50
2018-05-17T08:56:45.369Z,15.10
2018-05-17T08:57:45.393Z,16.40
2018-05-17T08:58:45.415Z,17.70
2018-05-17T08:59:45.536Z,15.20
2018-05-17T09:00:45.464Z,13.50
2018-05-17T09:01:45.487Z,14.80
2018-05-17T09:02:45.552Z,14.90
2018-05-17T09:03:45.535Z,11.40
2018-05-17T09:04:45.557Z,14.40
2018-05-17T09:05:45.593Z,13.10
2018-05-17T09:06:45.608Z,16.20
2018-05-17T09:07:45.629Z,14.20
2018-05-17T09:08:45.656Z,14.00
2018-05-17T09:09:45.683Z,15.30
2018-05-17T09:10:45.704Z,15.00
2018-05-17T09:11:45.728Z,15.30
2018-05-17T09:12:45.754Z,12.70
2018-05-17T09:13:45.781Z,13.50
2018-05-17T09:14:45.803Z,15.90
2018-05-17T09:15:45.829Z,16.00
2018-05-17T09:16:45.854Z,13.60
2018-05-17T09:17:45.883Z,12.00
2018-05-17T09:18:45.907Z,16.20
2018-05-17T09:19:45.934Z,15.90
2018-05-17T09:20:45.959Z,11.20
2018-05-17T09:21:45.987Z,14.80
2018-05-17T09:22:46.012Z,11.50
2018-05-17T09:23:46.038Z,13.50
2018-05-17T09:24:46.064Z,15.10
2018-05-17T09:25:46.092Z,14.70
2018-05-17T09:26:46.119Z,14.20
2018-05-17T09:27:46.150Z,13.20
2018-05-17T09:28:46.174Z,14.80
2018-05-17T09:29:46.200Z,14.00
2018-05-17T09:30:46.226Z,15.10
2018-05-17T09:31:46.254Z,14.20
2018-05-17T09:32:46.284Z,16.80
2018-05-17T09:33:46.309Z,13.40
2018-05-17T09:34:46.335Z,17.90
2018-05-17T09:35:46.479Z,15.50
2018-05-17T09:36:46.388Z,17.20
2018-05-17T09:37:46.416Z,15.40
2018-05-17T09:38:46.448Z,15.30
2018-05-17T09:39:46.468Z,15.80
2018-05-17T09:40:46.494Z,13.90
2018-05-17T09:41:46.522Z,15.90
2018-05-17T09:42:46.547Z,17.70
2018-05-17T09:43:46.577Z,15.10
2018-05-17T09:44:46.600Z,15.60
2018-05-17T09:45:46.627Z,15.70
2018-05-17T09:46:46.652Z,16.50
2018-05-17T09:47:46.679Z,14.10
2018-05-17T09:48:46.706Z,13.90
2018-05-17T09:49:46.737Z,15.90
2018-05-17T09:50:46.759Z,15.50
2018-05-17T09:51:46.786Z,15.30
2018-05-17T09:52:46.814Z,14.70
2018-05-17T09:53:46.840Z,13.40
2018-05-17T09:54:46.866Z,14.70
2018-05-17T09:55:46.894Z,15.80
2018-05-17T09:56:46.922Z,12.10
2018-05-17T09:57:46.948Z,13.10
2018-05-17T09:58:46.976Z,13.70
2018-05-17T09:59:47.004Z,14.10
2018-05-17T10:00:47.031Z,15.10
2018-05-17T10:01:47.061Z,16.20
2018-05-17T10:02:47.086Z,12.00
2018-05-17T10:03:47.113Z,13.90
2018-05-17T10:04:47.149Z,13.00
2018-05-17T10:05:47.171Z,13.60
2018-05-17T10:06:47.199Z,11.60
2018-05-17T10:07:47.226Z,13.40
2018-05-17T10:08:47.256Z,14.00
2018-05-17T10:09:47.281Z,15.80
2018-05-17T10:10:47.310Z,13.00
2018-05-17T10:11:47.337Z,13.10
2018-05-17T10:12:47.365Z,13.60
2018-05-17T10:13:47.396Z,14.10
2018-05-17T10:14:47.421Z,16.40
2018-05-17T10:15:47.451Z,13.60
2018-05-17T10:16:47.479Z,15.10
2018-05-17T10:17:47.508Z,13.80
2018-05-17T10:18:47.536Z,17.20
2018-05-17T10:19:47.565Z,17.30
2018-05-17T10:20:47.594Z,14.10
2018-05-17T10:21:47.681Z,15.30
2018-05-17T10:22:47.649Z,15.20
2018-05-17T10:23:47.679Z,16.60
2018-05-17T10:24:47.707Z,14.30
2018-05-17T10:25:47.735Z,14.40
2018-05-17T10:26:47.763Z,13.80
2018-05-17T10:27:47.795Z,17.90
2018-05-17T10:28:47.820Z,15.60
2018-05-17T10:29:47.848Z,17.00
2018-05-17T10:30:47.874Z,12.00
2018-05-17T10:31:47.903Z,13.50
2018-05-17T10:32:47.931Z,16.20
2018-05-17T10:33:47.959Z,12.70
2018-05-17T10:34:47.987Z,14.70
2018-05-17T10:35:48.015Z,12.70
2018-05-17T10:36:48.052Z,13.30
2018-05-17T10:37:48.072Z,13.20
2018-05-17T10:38:48.104Z,24.10
2018-05-17T10:39:48.127Z,17.70
2018-05-17T10:40:48.156Z,12.60
2018-05-17T10:41:48.188Z,12.40
2018-05-17T10:42:48.212Z,13.50
2018-05-17T10:43:48.241Z,14.90
2018-05-17T10:44:48.270Z,14.10
2018-05-17T10:45:48.299Z,14.40
2018-05-17T10:46:48.326Z,14.30
2018-05-17T10:47:48.354Z,13.70
2018-05-17T10:48:48.383Z,13.00
2018-05-17T10:49:48.415Z,14.60
2018-05-17T10:50:48.442Z,14.90
2018-05-17T10:51:48.469Z,14.70
2018-05-17T10:52:48.497Z,14.60
2018-05-17T10:53:48.526Z,14.60
2018-05-17T10:54:48.554Z,15.80
2018-05-17T10:55:48.583Z,13.00
2018-05-17T10:56:48.612Z,15.90
2018-05-17T10:57:48.641Z,13.40
2018-05-17T10:58:48.675Z,12.50
2018-05-17T10:59:48.704Z,15.40
2018-05-17T11:00:48.729Z,11.80
2018-05-17T11:01:48.760Z,15.80
2018-05-17T11:02:48.791Z,13.60
2018-05-17T11:03:48.816Z,10.80
2018-05-17T11:08:16.969Z,14.30
2018-05-17T11:09:16.998Z,12.10
2018-05-17T11:10:17.029Z,12.40
2018-05-17T11:11:17.060Z,11.90
2018-05-17T11:12:17.186Z,12.60
2018-05-17T11:13:17.116Z,12.20
2018-05-17T11:14:17.145Z,14.00
2018-05-17T11:15:17.219Z,13.90
2018-05-17T11:16:17.210Z,17.00
2018-05-17T11:17:17.233Z,15.00
2018-05-17T11:18:17.264Z,13.50
2018-05-17T11:19:17.293Z,14.90
2018-05-17T11:20:17.323Z,14.60
2018-05-17T11:21:17.352Z,14.10
2018-05-17T11:22:17.381Z,11.90
2018-05-17T11:23:17.410Z,12.30
2018-05-17T11:24:17.439Z,11.90
2018-05-17T11:25:17.470Z,13.60
2018-05-17T11:26:17.498Z,13.30
2018-05-17T11:27:17.528Z,14.20
2018-05-17T11:28:17.557Z,14.10
2018-05-17T11:29:17.587Z,12.70
2018-05-17T11:30:17.617Z,12.60
2018-05-17T11:31:17.644Z,12.20
2018-05-17T11:32:17.676Z,13.00
2018-05-17T11:33:17.705Z,12.00
2018-05-17T11:34:17.734Z,12.00
2018-05-17T11:35:17.763Z,12.70
2018-05-17T11:36:17.793Z,14.10
2018-05-17T11:37:17.822Z,12.90
2018-05-17T11:38:17.852Z,14.10
2018-05-17T11:39:17.901Z,12.30
2018-05-17T11:40:17.908Z,15.60
2018-05-17T11:41:17.938Z,11.30
2018-05-17T11:42:17.968Z,11.50
2018-05-17T11:43:17.996Z,14.20
2018-05-17T11:44:18.025Z,13.50
2018-05-17T11:45:18.054Z,12.70
2018-05-17T11:46:18.087Z,12.80
2018-05-17T11:47:18.112Z,13.30
2018-05-17T11:48:18.156Z,15.30
2018-05-17T11:49:18.170Z,14.20
2018-05-17T11:50:18.286Z,14.50
2018-05-17T11:51:18.229Z,13.40
2018-05-17T11:52:18.257Z,16.30
2018-05-17T11:53:18.285Z,12.90
2018-05-17T11:54:18.313Z,13.60
2018-05-17T11:55:18.357Z,17.10
2018-05-17T11:56:18.372Z,15.30
2018-05-17T11:57:18.399Z,9.90
2018-05-17T11:58:18.431Z,15.50
2018-05-17T11:59:18.458Z,12.60
2018-05-17T12:00:18.486Z,14.00
2018-05-17T12:01:18.515Z,13.20
2018-05-17T12:02:18.544Z,14.30
2018-05-17T12:03:18.572Z,13.00
2018-05-17T12:04:18.601Z,15.20
2018-05-17T12:05:18.629Z,13.00
2018-05-17T12:06:18.660Z,11.90
2018-05-17T12:07:18.699Z,12.00
2018-05-17T12:08:18.716Z,15.60
2018-05-17T12:09:18.743Z,12.90
2018-05-17T12:10:18.771Z,12.30
2018-05-17T12:11:18.800Z,10.20
2018-05-17T12:12:18.827Z,10.10
2018-05-17T12:13:18.859Z,11.80
2018-05-17T12:14:18.887Z,14.20
2018-05-17T12:15:18.914Z,10.40
2018-05-17T12:16:18.945Z,15.60
2018-05-17T12:17:18.971Z,12.60
2018-05-17T12:18:18.999Z,11.90
2018-05-17T12:19:19.027Z,12.70
2018-05-17T12:20:19.059Z,13.30
2018-05-17T12:21:19.089Z,10.50
2018-05-17T12:22:19.112Z,12.00
2018-05-17T12:23:19.138Z,14.40
2018-05-17T12:24:19.167Z,14.60
2018-05-17T12:25:19.195Z,13.20
2018-05-17T12:26:19.224Z,11.80
2018-05-17T12:27:19.252Z,12.50
2018-05-17T12:28:19.280Z,12.20
2018-05-17T12:29:19.308Z,11.30
2018-05-17T12:30:19.336Z,12.30
2018-05-17T12:31:19.367Z,11.40
2018-05-17T12:32:19.399Z,12.60
2018-05-17T12:33:19.419Z,13.10
2018-05-17T12:34:19.447Z,13.70
2018-05-17T12:35:19.473Z,11.70
2018-05-17T12:36:19.505Z,14.10
2018-05-17T12:37:19.529Z,13.70
2018-05-17T12:38:19.557Z,16.50
2018-05-17T12:39:19.585Z,13.40
2018-05-17T12:40:19.610Z,16.80
2018-05-17T12:41:19.639Z,14.60
2018-05-17T12:42:19.666Z,12.80
2018-05-17T12:43:19.691Z,15.90
2018-05-17T12:44:19.719Z,13.20
2018-05-17T12:45:19.746Z,15.40
2018-05-17T12:46:19.775Z,14.50
2018-05-17T12:47:19.801Z,12.30
2018-05-17T12:48:19.830Z,13.50
2018-05-17T12:49:19.855Z,11.10
2018-05-17T12:50:19.882Z,17.80
2018-05-17T12:51:19.908Z,14.70
2018-05-17T12:52:19.934Z,12.30
2018-05-17T12:53:19.962Z,13.30
2018-05-17T12:54:19.987Z,13.10
2018-05-17T12:55:20.013Z,12.90
2018-05-17T12:56:20.040Z,14.80